ELY317 LLBG-EGLL
Flight info
| Callsign | ELY317 |
|---|---|
| Flight time | N/A |
| Altitude | 38000 |
| Route | SUVAS DCT TEZAK L324 SAFTA DCT MAROS DCT LUTIG DCT EXELA UN127 RIKSO DCT DISOR/N0472F400 DCT LONTA UL608 DOLEV DCT PODOB DCT LIKVI DCT MONID DCT RUGOG DCT RIFEN DCT SAFFA DCT ELMUR DCT RIPUS L613 HOC DCT LUL DCT RLP DCT ROTSI DCT KOTUN DCT NINAL DCT ABNUR DCT DIMAL DCT ALESO |
| Aircraft | B772/H-SDE2E3FGHIJ4J5LM1OP2RVWXY/LB1D1 |
Departure
| Time | 2026-05-08 07:42 |
|---|---|
| Airport | Ben Gurion International Airport (LLBG) |
Arrival
| Time | N/A |
|---|---|
| Airport | London Heathrow Airport (EGLL) |
| Time | Latitude | Longitude | Altitude | Speed | Heading |
|---|---|---|---|---|---|
| 2026-05-08 07:05 | 32.00322 | 34.87626 | 119 ft | 0 kts | 316° |
| 2026-05-08 07:18 | 32.00322 | 34.87627 | 124 ft | 0 kts | 316° |
| 2026-05-08 07:19 | 32.00321 | 34.87627 | 124 ft | 0 kts | 316° |
| 2026-05-08 07:33 | 32.00310 | 34.87639 | 128 ft | 4 kts | 315° |
| 2026-05-08 07:34 | 32.00291 | 34.87662 | 111 ft | 3 kts | 313° |
| 2026-05-08 07:34 | 32.00277 | 34.87680 | 119 ft | 4 kts | 329° |
| 2026-05-08 07:34 | 32.00258 | 34.87683 | 119 ft | 2 kts | 28° |
| 2026-05-08 07:34 | 32.00270 | 34.87691 | 119 ft | 4 kts | 32° |
| 2026-05-08 07:35 | 32.00293 | 34.87708 | 119 ft | 4 kts | 32° |
| 2026-05-08 07:35 | 32.00301 | 34.87714 | 121 ft | 3 kts | 31° |
| 2026-05-08 07:36 | 32.00322 | 34.87729 | 121 ft | 7 kts | 31° |
| 2026-05-08 07:36 | 32.00377 | 34.87768 | 121 ft | 10 kts | 31° |
| 2026-05-08 07:37 | 32.00459 | 34.87826 | 119 ft | 17 kts | 31° |
| 2026-05-08 07:37 | 32.00561 | 34.87899 | 121 ft | 18 kts | 31° |
| 2026-05-08 07:37 | 32.00673 | 34.87979 | 121 ft | 18 kts | 31° |
| 2026-05-08 07:37 | 32.00779 | 34.88056 | 121 ft | 18 kts | 31° |
| 2026-05-08 07:38 | 32.00886 | 34.88133 | 121 ft | 18 kts | 31° |
| 2026-05-08 07:38 | 32.00999 | 34.88215 | 119 ft | 21 kts | 32° |
| 2026-05-08 07:38 | 32.01124 | 34.88306 | 121 ft | 21 kts | 31° |
| 2026-05-08 07:38 | 32.01248 | 34.88397 | 121 ft | 21 kts | 34° |
| 2026-05-08 07:39 | 32.01357 | 34.88512 | 122 ft | 21 kts | 48° |
| 2026-05-08 07:39 | 32.01445 | 34.88670 | 120 ft | 25 kts | 63° |
| 2026-05-08 07:39 | 32.01501 | 34.88872 | 122 ft | 26 kts | 79° |
| 2026-05-08 07:39 | 32.01534 | 34.89084 | 121 ft | 26 kts | 79° |
| 2026-05-08 07:40 | 32.01567 | 34.89291 | 123 ft | 23 kts | 79° |
| 2026-05-08 07:40 | 32.01596 | 34.89477 | 120 ft | 23 kts | 79° |
| 2026-05-08 07:40 | 32.01626 | 34.89646 | 122 ft | 16 kts | 65° |
| 2026-05-08 07:40 | 32.01712 | 34.89726 | 120 ft | 16 kts | 30° |
| 2026-05-08 07:41 | 32.01799 | 34.89770 | 119 ft | 12 kts | 360° |
| 2026-05-08 07:41 | 32.01836 | 34.89696 | 119 ft | 12 kts | 265° |
| 2026-05-08 07:41 | 32.01824 | 34.89605 | 122 ft | 16 kts | 261° |
| 2026-05-08 07:41 | 32.01766 | 34.89229 | 120 ft | 82 kts | 260° |
| 2026-05-08 07:42 | 32.01624 | 34.88305 | 125 ft | 145 kts | 259° |
| 2026-05-08 07:42 | 32.01469 | 34.86969 | 415 ft | 171 kts | 264° |
| 2026-05-08 07:42 | 32.01265 | 34.85524 | 1019 ft | 186 kts | 262° |
| 2026-05-08 07:42 | 32.00953 | 34.84065 | 1731 ft | 181 kts | 258° |
| 2026-05-08 07:43 | 32.00626 | 34.82623 | 2305 ft | 182 kts | 257° |
| 2026-05-08 07:43 | 32.00295 | 34.81215 | 2872 ft | 181 kts | 257° |
| 2026-05-08 07:43 | 31.99981 | 34.79750 | 3272 ft | 188 kts | 257° |
| 2026-05-08 07:43 | 31.99666 | 34.78196 | 3559 ft | 205 kts | 256° |
| 2026-05-08 07:44 | 31.99338 | 34.76494 | 3860 ft | 222 kts | 255° |
| 2026-05-08 07:44 | 31.99121 | 34.74637 | 4050 ft | 239 kts | 278° |
| 2026-05-08 07:44 | 31.99666 | 34.72743 | 4400 ft | 251 kts | 296° |
| 2026-05-08 07:44 | 32.00413 | 34.70892 | 5068 ft | 249 kts | 294° |
| 2026-05-08 07:45 | 32.01065 | 34.69010 | 5697 ft | 249 kts | 290° |
| 2026-05-08 07:45 | 32.01671 | 34.67036 | 6047 ft | 266 kts | 288° |
| 2026-05-08 07:45 | 32.02296 | 34.64925 | 6465 ft | 278 kts | 287° |
| 2026-05-08 07:45 | 32.02909 | 34.62748 | 7062 ft | 281 kts | 284° |
| 2026-05-08 07:46 | 32.03419 | 34.60532 | 7760 ft | 280 kts | 282° |
| 2026-05-08 07:46 | 32.03902 | 34.58304 | 8430 ft | 281 kts | 283° |
| 2026-05-08 07:46 | 32.04386 | 34.56065 | 9101 ft | 282 kts | 283° |
| 2026-05-08 07:46 | 32.04873 | 34.53827 | 9784 ft | 283 kts | 283° |
| 2026-05-08 07:47 | 32.05368 | 34.51566 | 10288 ft | 291 kts | 284° |
| 2026-05-08 07:47 | 32.05894 | 34.49173 | 10429 ft | 313 kts | 284° |
| 2026-05-08 07:47 | 32.06458 | 34.46616 | 10745 ft | 329 kts | 285° |
| 2026-05-08 07:47 | 32.07046 | 34.43965 | 11357 ft | 336 kts | 285° |
| 2026-05-08 07:48 | 32.07643 | 34.41279 | 12094 ft | 343 kts | 285° |
| 2026-05-08 07:48 | 32.08251 | 34.38546 | 12986 ft | 345 kts | 285° |
| 2026-05-08 07:48 | 32.08861 | 34.35795 | 13898 ft | 348 kts | 285° |
| 2026-05-08 07:48 | 32.09478 | 34.33015 | 14702 ft | 352 kts | 285° |
| 2026-05-08 07:49 | 32.10100 | 34.30209 | 15529 ft | 356 kts | 285° |
| 2026-05-08 07:49 | 32.10728 | 34.27369 | 16349 ft | 360 kts | 285° |
| 2026-05-08 07:49 | 32.11362 | 34.24501 | 17159 ft | 364 kts | 285° |
| 2026-05-08 07:49 | 32.12003 | 34.21597 | 18000 ft | 367 kts | 285° |
| 2026-05-08 07:50 | 32.12640 | 34.18707 | 18785 ft | 370 kts | 285° |
| 2026-05-08 07:50 | 32.13299 | 34.15718 | 19556 ft | 374 kts | 285° |
| 2026-05-08 07:50 | 32.13955 | 34.12734 | 20281 ft | 377 kts | 285° |
| 2026-05-08 07:50 | 32.14617 | 34.09722 | 21026 ft | 381 kts | 285° |
| 2026-05-08 07:51 | 32.15286 | 34.06677 | 21750 ft | 385 kts | 285° |
| 2026-05-08 07:51 | 32.15963 | 34.03604 | 22480 ft | 389 kts | 287° |
| 2026-05-08 07:51 | 32.16849 | 34.00576 | 23206 ft | 392 kts | 294° |
| 2026-05-08 07:51 | 32.18021 | 33.97712 | 23890 ft | 395 kts | 299° |
| 2026-05-08 07:52 | 32.19453 | 33.94942 | 24530 ft | 396 kts | 306° |
| 2026-05-08 07:52 | 32.21037 | 33.92312 | 25411 ft | 390 kts | 308° |
| 2026-05-08 07:52 | 32.22620 | 33.89713 | 26163 ft | 390 kts | 308° |
| 2026-05-08 07:52 | 32.24213 | 33.87103 | 26717 ft | 394 kts | 309° |
| 2026-05-08 07:53 | 32.25820 | 33.84465 | 27253 ft | 397 kts | 309° |
| 2026-05-08 07:53 | 32.27434 | 33.81805 | 27864 ft | 399 kts | 309° |
| 2026-05-08 07:53 | 32.29047 | 33.79135 | 28470 ft | 400 kts | 309° |
| 2026-05-08 07:53 | 32.30663 | 33.76452 | 29053 ft | 401 kts | 310° |
| 2026-05-08 07:54 | 32.32286 | 33.73754 | 29553 ft | 404 kts | 310° |
| 2026-05-08 07:54 | 32.33914 | 33.71043 | 30062 ft | 406 kts | 310° |
| 2026-05-08 07:54 | 32.35553 | 33.68311 | 30475 ft | 408 kts | 310° |
| 2026-05-08 07:54 | 32.37195 | 33.65569 | 30936 ft | 408 kts | 310° |
| 2026-05-08 07:55 | 32.38835 | 33.62827 | 31372 ft | 408 kts | 310° |
| 2026-05-08 07:55 | 32.40476 | 33.60082 | 31746 ft | 410 kts | 310° |
| 2026-05-08 07:55 | 32.42127 | 33.57321 | 32053 ft | 412 kts | 310° |
| 2026-05-08 07:55 | 32.43788 | 33.54541 | 32345 ft | 414 kts | 310° |
| 2026-05-08 07:56 | 32.45452 | 33.51753 | 32663 ft | 415 kts | 310° |
| 2026-05-08 07:56 | 32.47116 | 33.48962 | 33053 ft | 414 kts | 310° |
| 2026-05-08 07:56 | 32.48767 | 33.46187 | 33583 ft | 410 kts | 310° |
| 2026-05-08 07:56 | 32.50400 | 33.43442 | 34123 ft | 406 kts | 310° |
| 2026-05-08 07:57 | 32.52019 | 33.40718 | 34489 ft | 405 kts | 310° |
| 2026-05-08 07:57 | 32.53645 | 33.37985 | 34714 ft | 407 kts | 310° |
| 2026-05-08 07:57 | 32.55281 | 33.35236 | 34945 ft | 408 kts | 310° |
| 2026-05-08 07:57 | 32.56916 | 33.32484 | 35227 ft | 409 kts | 310° |
| 2026-05-08 07:58 | 32.58552 | 33.29729 | 35510 ft | 409 kts | 310° |
| 2026-05-08 07:58 | 32.60187 | 33.26970 | 35778 ft | 409 kts | 310° |
| 2026-05-08 07:58 | 32.61804 | 33.24241 | 36043 ft | 410 kts | 310° |
| 2026-05-08 07:58 | 32.63441 | 33.21478 | 36309 ft | 410 kts | 310° |
| 2026-05-08 07:59 | 32.65081 | 33.18706 | 36565 ft | 410 kts | 310° |
| 2026-05-08 07:59 | 32.66720 | 33.15933 | 36839 ft | 410 kts | 309° |
| 2026-05-08 07:59 | 32.68358 | 33.13161 | 37115 ft | 410 kts | 309° |
| 2026-05-08 07:59 | 32.69992 | 33.10391 | 37390 ft | 410 kts | 309° |
| 2026-05-08 08:00 | 32.71629 | 33.07618 | 37644 ft | 410 kts | 309° |
| 2026-05-08 08:00 | 32.73262 | 33.04848 | 37970 ft | 408 kts | 309° |
| 2026-05-08 08:00 | 32.74894 | 33.02076 | 38084 ft | 411 kts | 309° |
| 2026-05-08 08:01 | 32.78180 | 32.96493 | 38130 ft | 412 kts | 309° |
| 2026-05-08 08:01 | 32.81431 | 32.90954 | 38143 ft | 407 kts | 309° |
| 2026-05-08 08:02 | 32.84669 | 32.85436 | 38144 ft | 407 kts | 309° |
| 2026-05-08 08:02 | 32.87913 | 32.79898 | 38153 ft | 408 kts | 309° |
| 2026-05-08 08:03 | 32.91159 | 32.74350 | 38150 ft | 409 kts | 309° |
| 2026-05-08 08:03 | 32.94407 | 32.68788 | 38151 ft | 409 kts | 309° |
| 2026-05-08 08:04 | 32.97654 | 32.63220 | 38149 ft | 410 kts | 309° |
| 2026-05-08 08:04 | 33.00900 | 32.57646 | 38166 ft | 409 kts | 308° |
| 2026-05-08 08:05 | 33.04143 | 32.52068 | 38143 ft | 409 kts | 308° |
| 2026-05-08 08:05 | 33.07358 | 32.46529 | 38146 ft | 409 kts | 308° |